In Rescue
 
Open Full Screen Window  High Contrast Mode
Wind Gusting 00 knots
06
March 01, 2024 3:58 PM CST
Weather Information
Wind Direction
  200 °
Wind Speed
  06 kt (7 mph)
Wind Gust
  00 kt (0 mph)
Altimeter
29.64 in
Visibility
10 SM
Temperature
12° C
54° F
Dewpoint
-01° C
30° F
Humidity
41%
Sky Condition
Clear
VFR

METAR KVWU 012158Z AUTO 20006KT 10SM CLR 12/M01 A2964 RMK AO2

FAA Disclaimer: The data displayed is for advisory purposes only and is not to be used for flight planning or operations.